KREO/REO METAR and TAF weather

Enter ICAO airport designator
Station Type Date Time Source
KREO METAR 2019/08/22 20:52 UTC NOAA

KREO 222052Z AUTO 28010G14KT 26/03 A2999 RMK AO1 SLP113 T02610028 58013


Station Type Date Time Source
KREO Decoded METAR 2019/08/22 20:52 UTC NOAA

Station name not available
Aug 22, 2019 - 04:52 PM EDT / 2019.08.22 2052 UTC
Wind: from the W (280 degrees) at 12 MPH (10 KT) gusting to 16 MPH (14 KT):0
Temperature: 79.0 F (26.1 C)
Dew Point: 37.0 F (2.8 C)
Relative Humidity: 22%
Pressure (altimeter): 29.99 in. Hg (1015 hPa)
Pressure tendency: 0.04 inches (1.3 hPa) lower than three hours ago
ob: KREO 222052Z AUTO 28010G14KT 26/03 A2999 RMK AO1 SLP113 T02610028 58013
cycle: 21

Station Type Date Time Source
KREO TAF UTC NOAA

Error!

Example: see airport list